Terminal Aerodrome Forecast
Issued by NWS Central Illinois

Home | Current Version | Previous Version | Text Only | Print | Product List | Glossary On
Versions: 1 2 3 4 5 6 7 8 9 10 11 12 13 14 15 16 17
000
FTUS43 KILX 281740
TAFSPI
TAF
KSPI 281740Z 2818/2918 19014G23KT P6SM SCT100 BKN200
     FM290100 19014G22KT P6SM BKN200
     FM290400 19013G20KT P6SM BKN200 WS020/22045KT
     FM291000 20010KT P6SM SCT100 BKN200
     FM291400 22013G21KT P6SM SCT060 BKN150=

USA.gov is the U.S. government's official web portal to all federal, state and local government web resources and services.